Accueil
METAR-TAF:

METAR-TAF

Aéroports :

Aéroport de Valladolid

Valladolid, Espagne

latitude: 41-43N, longitude: 004-51W, altitude: 849 m

Observation

Le bulletin a été fait il y a 25 minutes, à 13:30 UTC
Vent 8 kt de est/nord-est
Température 12°C
Humidité 35%
Pression 1028 hPa
Visibilité 10 km ou plus
pas de nuages en-dessous de 1500 mètres et pas de cumulonimbus.

METAR: LEVD 271330Z 07008KT CAVOK 12/M03 Q1028

Heure: 14:55 (13:55 UTC)

Prévision

Le bulletin a été fait il y a 5 heures et 55 minutes, à 08:00 UTC
Prévision valable du 27 à 09 UTC au 28 à 09 UTC
Vent 8 kt de est/nord-est
Visibilité 10 km ou plus
pas de nuages en-dessous de 1500 mètres et pas de cumulonimbus.

TAF: LEVD 270800Z 2709/2809 06008KT CAVOK TX14/2715Z TNM04/2806Z

Observations et prévisions météorologiques de plus de 4000 aéroports (messages METAR et TAF).

Les stations disponibles sont représentées par des disques jaunes et rouges sur la carte.

Passer la souris dessus pour voir le nom de la station.

Cliquer dessus pour voir les observations et prévisions météorologiques.

Pour changer de carte: cliquez sur les boutons verts avec une croix noire pour zoomer, sur le bouton vert avec un tiret pour effectuer un zoom arrière, ou sur les flèches vertes pour les cartes adjacentes.


METAR-TAF: